Ames, Kansas
Current Conditions -  °F | °C
As of 2:06 PM on Sunday 21 Dec 2014 (Local Time) from KCNK Reporting Station
Haze Haze  
Wind Chill: 34°   Ceiling: 700
Heat Index: 41°   Visibility: 4mi
Dew Point: 41°   Wind: 13mph
Humidity: 100%   Direction: 190°S
Pressure: 29.73"   Gusts: NA
Location:  39.4716°N, 97.7305°W
Report Text: KCNK 212006Z AUTO 19011KT 4SM BR OVC007 05/05 A2973 RMK AO2 CIG 004V009 T00500050 $
Loading
Personal Weather Stations






























Interactive Weather Map New forecast layout! Learn more

10-Day Weather Forecast

Advertisements
Track Severe Weather on mobile